Weather History for KDXX - April, 2013

Change the Weather History Date:

Saturday, April 27, 2013

  Actual Average (KAQP) Record (KAQP)
Temperature  
Mean Temperature 55 °F -  
Max Temperature 75 °F 61 °F 78 °F (2004)
Min Temperature 35 °F 36 °F 21 °F (2008)
Degree Days  
Heating Degree Days 10    
Growing Degree Days 5 (Base 50)    
Moisture  
Dew Point 34 °F    
Average Humidity 46    
Maximum Humidity 87    
Minimum Humidity 18    
Precipitation  
Precipitation 0.00 in - - ()
Sea Level Pressure  
Sea Level Pressure 29.99 in    
Wind  
Wind Speed 8 mph (SSW)    
Max Wind Speed 16 mph    
Max Gust Speed 22 mph    
Visibility 10 miles    
Events      
Averages and records for this station are not official NWS values.
T = Trace of Precipitation, MM = Missing Value Source: NWS Daily Summary

Daily Weather History Graph

Daily Weather History Graph

Search for Another Location

Airport or City:

Trip Planner

Search our weather history database for the weather conditions in past years. The results will help you decide how hot, cold, wet, or windy it might be!

Date:

Astronomy

Apr. 27, 2013 Rise Set
Actual Time 6:19 AM CDT 8:25 PM CDT
Civil Twilight 5:47 AM CDT 8:57 PM CDT
Nautical Twilight 5:08 AM CDT 9:37 PM CDT
Astronomical Twilight 4:25 AM CDT 10:20 PM CDT
Moon 11:01 PM CDT (4/27) 7:35 AM CDT (4/27)
Length of Visible Light 15h 09m
Length of Day
14h 05m
Waning Gibbous, 95% of the Moon is Illuminated
Apr 27
Waning Gibbous
May 2
Last Quarter
May 9
New
May 17
First Quarter
May 24
Full

Hourly Weather History & Observations

Time (CDT) Temp. Windchill Dew Point Humidity Pressure Visibility Wind Dir Wind Speed Gust Speed Precip Events Conditions
12:14 AM 46.4 °F 45.2 °F 35.6 °F 66% 30.14 in 10.0 mi SW 3.5 mph - N/A   Clear
12:33 AM 44.6 °F 43.1 °F 37.4 °F 76% 30.13 in 10.0 mi SW 3.5 mph - N/A   Clear
12:54 AM 42.8 °F 40.1 °F 35.6 °F 76% 30.14 in 10.0 mi SW 4.6 mph - N/A   Clear
1:14 AM 41.0 °F 39.0 °F 35.6 °F 81% 30.14 in 10.0 mi SSW 3.5 mph - N/A   Clear
1:33 AM 41.0 °F 38.0 °F 35.6 °F 81% 30.13 in 10.0 mi SSW 4.6 mph - N/A   Clear
1:54 AM 42.8 °F 40.1 °F 33.8 °F 70% 30.13 in 10.0 mi SSW 4.6 mph - N/A   Clear
2:14 AM 41.0 °F 38.0 °F 33.8 °F 76% 30.13 in 10.0 mi SSW 4.6 mph - N/A   Clear
2:33 AM 41.0 °F 39.0 °F 33.8 °F 76% 30.12 in 10.0 mi SSW 3.5 mph - N/A   Clear
2:54 AM 39.2 °F 37.0 °F 33.8 °F 81% 30.12 in 10.0 mi SSW 3.5 mph - N/A   Clear
3:14 AM 35.6 °F 30.7 °F 32.0 °F 87% 30.11 in 10.0 mi South 5.8 mph - N/A   Clear
3:54 AM 37.4 °F 34.9 °F 32.0 °F 81% 30.10 in 10.0 mi SSW 3.5 mph - N/A   Clear
4:14 AM 37.4 °F 33.8 °F 32.0 °F 81% 30.10 in 10.0 mi SW 4.6 mph - N/A   Clear
4:33 AM 39.2 °F 37.0 °F 32.0 °F 75% 30.09 in 10.0 mi SW 3.5 mph - N/A   Clear
4:54 AM 37.4 °F 32.8 °F 30.2 °F 75% 30.09 in 10.0 mi SW 5.8 mph - N/A   Clear
5:14 AM 39.2 °F 35.0 °F 32.0 °F 75% 30.08 in 10.0 mi SW 5.8 mph - N/A   Clear
5:33 AM 37.4 °F 32.8 °F 32.0 °F 81% 30.08 in 10.0 mi SSW 5.8 mph - N/A   Clear
5:54 AM 39.2 °F 35.0 °F 30.2 °F 70% 30.07 in 10.0 mi SW 5.8 mph - N/A   Clear
6:13 AM 39.2 °F 35.0 °F 30.2 °F 70% 30.07 in 10.0 mi SSW 5.8 mph - N/A   Clear
6:34 AM 41.0 °F 37.1 °F 30.2 °F 65% 30.07 in 10.0 mi SW 5.8 mph - N/A   Clear
6:54 AM 39.2 °F 35.0 °F 30.2 °F 70% 30.07 in 10.0 mi SSW 5.8 mph - N/A   Clear
7:13 AM 39.2 °F 33.6 °F 33.8 °F 81% 30.08 in 10.0 mi SSW 8.1 mph - N/A   Clear
7:34 AM 44.6 °F 41.4 °F 33.8 °F 66% 30.07 in 10.0 mi SW 5.8 mph - N/A   Clear
7:54 AM 46.4 °F 42.9 °F 33.8 °F 62% 30.07 in 10.0 mi SW 6.9 mph - N/A   Clear
8:13 AM 50.0 °F - 35.6 °F 58% 30.06 in 10.0 mi SW 6.9 mph - N/A   Clear
8:34 AM 53.6 °F - 37.4 °F 54% 30.07 in 10.0 mi SW 6.9 mph - N/A   Clear
8:54 AM 57.2 °F - 37.4 °F 48% 30.06 in 10.0 mi SW 8.1 mph - N/A   Clear
9:13 AM 59.0 °F - 35.6 °F 42% 30.06 in 10.0 mi SW 8.1 mph - N/A   Clear
9:34 AM 62.6 °F - 33.8 °F 34% 30.05 in 10.0 mi SW 13.8 mph - N/A   Clear
9:54 AM 64.4 °F - 33.8 °F 32% 30.05 in 10.0 mi SW 11.5 mph - N/A   Clear
10:13 AM 64.4 °F - 30.2 °F 28% 30.04 in 10.0 mi WSW 13.8 mph - N/A   Clear
10:34 AM 66.2 °F - 32.0 °F 28% 30.04 in 10.0 mi SW 13.8 mph - N/A   Clear
10:54 AM 66.2 °F - 32.0 °F 28% 30.04 in 10.0 mi SW 16.1 mph - N/A   Clear
11:13 AM 66.2 °F - 30.2 °F 26% 30.04 in 10.0 mi SW 13.8 mph - N/A   Clear
11:34 AM 69.8 °F - 30.2 °F 23% 30.04 in 10.0 mi SW 13.8 mph - N/A   Clear
11:54 AM 69.8 °F - 28.4 °F 21% 30.04 in 10.0 mi SW 12.7 mph - N/A   Clear
12:13 PM 69.8 °F - 30.2 °F 23% 30.03 in 10.0 mi SSW 12.7 mph - N/A   Clear
12:34 PM 71.6 °F - 32.0 °F 23% 30.02 in 10.0 mi South 11.5 mph 16.1 mph N/A   Clear
12:54 PM 71.6 °F - 30.2 °F 22% 30.01 in 10.0 mi SSW 11.5 mph - N/A   Clear
1:13 PM 71.6 °F - 28.4 °F 20% 30.00 in 10.0 mi SSW 11.5 mph - N/A   Clear
1:34 PM 73.4 °F - 32.0 °F 22% 29.99 in 10.0 mi South 12.7 mph 17.3 mph N/A   Clear
1:54 PM 73.4 °F - 32.0 °F 22% 29.98 in 10.0 mi SSW 13.8 mph - N/A   Clear
2:13 PM 73.4 °F - 33.8 °F 23% 29.97 in 10.0 mi SSW 15.0 mph 19.6 mph N/A   Clear
2:34 PM 73.4 °F - 30.2 °F 20% 29.96 in 10.0 mi South 15.0 mph 18.4 mph N/A   Clear
2:54 PM 73.4 °F - 30.2 °F 20% 29.95 in 10.0 mi SSW 13.8 mph 19.6 mph N/A   Clear
3:13 PM 73.4 °F - 33.8 °F 23% 29.95 in 10.0 mi SSW 13.8 mph 18.4 mph N/A   Clear
3:34 PM 73.4 °F - 32.0 °F 22% 29.94 in 10.0 mi South 9.2 mph 18.4 mph N/A   Clear
3:54 PM 75.2 °F - 32.0 °F 21% 29.93 in 10.0 mi South 15.0 mph 21.9 mph N/A   Clear
4:13 PM 73.4 °F - 30.2 °F 20% 29.92 in 10.0 mi SSW 11.5 mph 17.3 mph N/A   Clear
4:34 PM 75.2 °F - 28.4 °F 18% 29.91 in 10.0 mi SSW 10.4 mph - N/A   Clear
4:53 PM 75.2 °F - 30.2 °F 19% 29.91 in 10.0 mi SSW 12.7 mph - N/A   Clear
5:14 PM 73.4 °F - 30.2 °F 20% 29.90 in 10.0 mi South 11.5 mph - N/A   Clear
5:33 PM 73.4 °F - 32.0 °F 22% 29.89 in 10.0 mi SSW 15.0 mph - N/A   Clear
5:54 PM 73.4 °F - 32.0 °F 22% 29.88 in 10.0 mi South 11.5 mph 17.3 mph N/A   Clear
6:13 PM 73.4 °F - 32.0 °F 22% 29.88 in 10.0 mi South 11.5 mph - N/A   Clear
6:33 PM 71.6 °F - 33.8 °F 25% 29.87 in 10.0 mi South 12.7 mph - N/A   Clear
6:54 PM 71.6 °F - 33.8 °F 25% 29.88 in 10.0 mi South 11.5 mph - N/A   Clear
7:13 PM 69.8 °F - 35.6 °F 28% 29.87 in 10.0 mi South 10.4 mph - N/A   Clear
7:33 PM 69.8 °F - 35.6 °F 28% 29.86 in 10.0 mi South 11.5 mph - N/A   Clear
7:54 PM 66.2 °F - 37.4 °F 35% 29.86 in 10.0 mi South 10.4 mph - N/A   Clear
8:13 PM 64.4 °F - 37.4 °F 37% 29.86 in 10.0 mi South 9.2 mph - N/A   Clear
8:33 PM 60.8 °F - 39.2 °F 45% 29.85 in 10.0 mi South 10.4 mph - N/A   Clear
8:54 PM 60.8 °F - 39.2 °F 45% 29.85 in 10.0 mi SSE 9.2 mph - N/A   Clear
9:13 PM 59.0 °F - 39.2 °F 48% 29.84 in 10.0 mi SSE 11.5 mph - N/A   Clear
9:33 PM 57.2 °F - 39.2 °F 51% 29.83 in 10.0 mi SSE 11.5 mph - N/A   Clear
9:54 PM 57.2 °F - 37.4 °F 48% 29.83 in 10.0 mi SSE 10.4 mph - N/A   Clear
10:13 PM 55.4 °F - 37.4 °F 51% 29.82 in 10.0 mi South 9.2 mph - N/A   Clear
10:34 PM 55.4 °F - 37.4 °F 51% 29.82 in 10.0 mi South 11.5 mph - N/A   Clear
10:54 PM 55.4 °F - 37.4 °F 51% 29.82 in 10.0 mi South 11.5 mph - N/A   Clear
11:13 PM 53.6 °F - 37.4 °F 54% 29.81 in 10.0 mi South 9.2 mph - N/A   Clear
11:34 PM 51.8 °F - 39.2 °F 62% 29.81 in 10.0 mi South 10.4 mph - N/A   Clear
11:54 PM 51.8 °F - 37.4 °F 58% 29.80 in 10.0 mi South 8.1 mph - N/A   Clear